Woodstock, Virginia
Current Conditions -  °F | °C
As of 10:15 PM on Saturday 25 Oct 2014 (Local Time) from KFRR Reporting Station
Clear Clear  
Wind Chill: 64°   Ceiling: Unl
Heat Index: 64°   Visibility: 10mi
Dew Point: 45°   Wind: 7mph
Humidity: 49%   Direction: 270°W
Pressure: 29.74"   Gusts: NA
Location:  38.88°N, 78.51°W
Report Text: KFRR 260215Z AUTO 27006KT 10SM CLR 18/07 A2974 RMK AO1
Loading
Personal Weather Stations






























Interactive Weather Map New forecast layout! Learn more

10-Day Weather Forecast

Advertisements
Track Severe Weather on mobile